createdAt,value
2017-11-24T00:00:16.032Z,0
2017-11-24T00:01:26.074Z,0
2017-11-24T00:02:36.151Z,0
2017-11-24T00:03:46.441Z,0
2017-11-24T00:04:56.756Z,0
2017-11-24T00:06:07.294Z,0
2017-11-24T00:07:18.030Z,0
2017-11-24T00:08:28.320Z,0
2017-11-24T00:09:38.369Z,0
2017-11-24T00:10:48.724Z,0
2017-11-24T00:11:58.767Z,0
2017-11-24T00:13:08.796Z,0
2017-11-24T00:14:19.147Z,0
2017-11-24T00:15:29.488Z,0
2017-11-24T00:16:39.789Z,0
2017-11-24T00:17:50.175Z,0
2017-11-24T00:19:00.725Z,0
2017-11-24T00:20:11.112Z,0
2017-11-24T00:21:21.556Z,0
2017-11-24T00:22:31.848Z,0
2017-11-24T00:23:42.156Z,0
2017-11-24T00:24:52.497Z,0
2017-11-24T00:26:02.730Z,0
2017-11-24T00:27:13.084Z,0
2017-11-24T00:28:23.808Z,0
2017-11-24T00:29:34.129Z,0
2017-11-24T00:30:44.419Z,0
2017-11-24T00:31:54.739Z,0
2017-11-24T00:33:04.762Z,0
2017-11-24T00:34:15.264Z,0
2017-11-24T00:35:25.343Z,0
2017-11-24T00:36:35.674Z,0
2017-11-24T00:37:45.707Z,0
2017-11-24T00:38:55.831Z,0
2017-11-24T00:40:05.743Z,0
2017-11-24T00:41:16.024Z,0
2017-11-24T00:42:26.406Z,0
2017-11-24T00:43:36.682Z,0
2017-11-24T00:44:47.006Z,0
2017-11-24T00:45:57.291Z,0
2017-11-24T00:47:07.391Z,0
2017-11-24T00:48:49.551Z,0
2017-11-24T00:49:59.899Z,0
2017-11-24T00:51:10.169Z,0
2017-11-24T00:52:20.465Z,0
2017-11-24T00:53:30.783Z,0
2017-11-24T00:54:41.076Z,0
2017-11-24T00:55:51.567Z,0
2017-11-24T00:57:01.941Z,0
2017-11-24T00:58:12.246Z,0
2017-11-24T00:59:22.279Z,0
2017-11-24T01:00:32.025Z,0
2017-11-24T01:01:42.357Z,0
2017-11-24T01:02:52.664Z,0
2017-11-24T01:04:02.666Z,0
2017-11-24T01:05:12.679Z,0
2017-11-24T01:06:23.016Z,0
2017-11-24T01:07:33.387Z,0
2017-11-24T01:08:43.707Z,0
2017-11-24T01:09:54.022Z,0
2017-11-24T01:11:05.046Z,0
2017-11-24T01:12:15.456Z,0
2017-11-24T01:13:25.424Z,0
2017-11-24T01:14:35.729Z,0
2017-11-24T01:15:46.022Z,0
2017-11-24T01:16:56.444Z,0
2017-11-24T01:18:06.753Z,0
2017-11-24T01:19:17.162Z,0
2017-11-24T01:20:27.177Z,0
2017-11-24T01:21:37.563Z,0
2017-11-24T01:22:47.854Z,0
2017-11-24T01:23:57.887Z,0
2017-11-24T01:25:08.196Z,0
2017-11-24T01:26:18.296Z,0
2017-11-24T01:27:28.330Z,0
2017-11-24T01:28:38.681Z,0
2017-11-24T01:29:49.205Z,0
2017-11-24T01:30:59.513Z,0
2017-11-24T01:32:09.601Z,0
2017-11-24T01:33:20.194Z,0
2017-11-24T01:34:30.459Z,0
2017-11-24T01:35:40.116Z,0
2017-11-24T01:36:50.406Z,0
2017-11-24T01:38:00.739Z,0
2017-11-24T01:39:11.060Z,0
2017-11-24T01:40:21.357Z,0
2017-11-24T01:41:31.740Z,0
2017-11-24T01:42:42.024Z,0
2017-11-24T01:43:52.178Z,0
2017-11-24T01:45:02.167Z,0
2017-11-24T01:46:12.748Z,0
2017-11-24T01:47:22.507Z,0
2017-11-24T01:48:32.709Z,0
2017-11-24T01:49:42.997Z,0
2017-11-24T01:50:53.281Z,0
2017-11-24T01:52:03.576Z,0
2017-11-24T01:53:14.113Z,0
2017-11-24T01:54:24.499Z,0
2017-11-24T01:55:34.281Z,0
2017-11-24T01:56:44.637Z,0
2017-11-24T01:57:54.934Z,0
2017-11-24T01:59:05.218Z,0
2017-11-24T02:00:15.764Z,0
2017-11-24T02:01:26.077Z,0
2017-11-24T02:02:36.399Z,0
2017-11-24T02:03:46.484Z,0
2017-11-24T02:04:56.245Z,0
2017-11-24T02:06:06.326Z,0
2017-11-24T02:07:16.627Z,0
2017-11-24T02:08:26.540Z,0
2017-11-24T02:09:36.228Z,0
2017-11-24T02:10:46.521Z,0
2017-11-24T02:11:56.847Z,0
2017-11-24T02:13:07.442Z,0
2017-11-24T02:14:17.483Z,0
2017-11-24T02:15:27.804Z,0
2017-11-24T02:16:38.082Z,0
2017-11-24T02:17:48.598Z,0
2017-11-24T02:18:58.943Z,0
2017-11-24T02:20:09.235Z,0
2017-11-24T02:21:19.173Z,0
2017-11-24T02:22:29.564Z,0
2017-11-24T02:23:39.871Z,0
2017-11-24T02:24:50.296Z,0
2017-11-24T02:26:00.718Z,0
2017-11-24T02:27:11.007Z,0
2017-11-24T02:28:21.744Z,0
2017-11-24T02:29:32.151Z,0
2017-11-24T02:30:42.440Z,0
2017-11-24T02:31:52.493Z,0
2017-11-24T02:33:02.829Z,0
2017-11-24T02:34:12.884Z,0
2017-11-24T02:35:23.171Z,0
2017-11-24T02:36:33.459Z,0
2017-11-24T02:37:43.802Z,0
2017-11-24T02:38:54.114Z,0
2017-11-24T02:40:04.144Z,0
2017-11-24T02:41:14.456Z,0
2017-11-24T02:42:25.162Z,0
2017-11-24T02:43:35.161Z,0
2017-11-24T02:44:45.480Z,0
2017-11-24T02:45:55.123Z,0
2017-11-24T02:47:05.131Z,0
2017-11-24T02:48:15.417Z,0
2017-11-24T02:49:25.690Z,0
2017-11-24T02:50:36.009Z,0
2017-11-24T02:51:46.635Z,0
2017-11-24T02:52:56.753Z,0
2017-11-24T02:54:07.084Z,0
2017-11-24T02:55:17.655Z,0
2017-11-24T02:56:28.038Z,0
2017-11-24T02:57:38.090Z,0
2017-11-24T02:58:48.413Z,0
2017-11-24T02:59:58.708Z,0
2017-11-24T03:01:08.992Z,0
2017-11-24T03:02:19.085Z,0
2017-11-24T03:03:29.389Z,0
2017-11-24T03:04:39.927Z,0
2017-11-24T03:05:50.249Z,0
2017-11-24T03:07:00.539Z,0
2017-11-24T03:08:10.848Z,0
2017-11-24T03:09:21.161Z,0
2017-11-24T03:10:31.107Z,0
2017-11-24T03:11:41.609Z,0
2017-11-24T03:12:52.125Z,0
2017-11-24T03:14:02.224Z,0
2017-11-24T03:15:12.523Z,0
2017-11-24T03:16:22.798Z,0
2017-11-24T03:17:32.828Z,0
2017-11-24T03:18:42.944Z,0
2017-11-24T03:19:52.713Z,0
2017-11-24T03:21:02.800Z,0
2017-11-24T03:22:12.761Z,0
2017-11-24T03:23:23.134Z,0
2017-11-24T03:24:33.163Z,0
2017-11-24T03:25:43.191Z,0
2017-11-24T03:26:53.482Z,0
2017-11-24T03:28:03.901Z,0
2017-11-24T03:29:14.214Z,0
2017-11-24T03:30:24.259Z,0
2017-11-24T03:31:34.542Z,0
2017-11-24T03:32:44.895Z,0
2017-11-24T03:33:54.870Z,0
2017-11-24T03:35:04.774Z,0
2017-11-24T03:36:15.075Z,0
2017-11-24T03:37:25.068Z,0
2017-11-24T03:38:35.159Z,0
2017-11-24T03:39:45.189Z,0
2017-11-24T03:40:55.469Z,0
2017-11-24T03:42:05.495Z,0
2017-11-24T03:43:15.813Z,0
2017-11-24T03:44:26.091Z,0
2017-11-24T03:45:36.172Z,0
2017-11-24T03:46:46.480Z,0
2017-11-24T03:47:56.776Z,0
2017-11-24T03:49:07.062Z,0
2017-11-24T03:50:17.331Z,0
2017-11-24T03:51:27.610Z,0
2017-11-24T03:52:37.910Z,0
2017-11-24T03:53:48.226Z,0
2017-11-24T03:54:58.619Z,0
2017-11-24T03:56:08.648Z,0
2017-11-24T03:57:18.958Z,0
2017-11-24T03:58:29.277Z,0
2017-11-24T03:59:39.593Z,0
2017-11-24T04:00:49.858Z,0
2017-11-24T04:01:59.927Z,0
2017-11-24T04:03:10.468Z,0
2017-11-24T04:04:20.768Z,0
2017-11-24T04:05:31.081Z,0
2017-11-24T04:06:41.111Z,0
2017-11-24T04:07:51.131Z,0
2017-11-24T04:09:01.425Z,0
2017-11-24T04:10:11.849Z,0
2017-11-24T04:11:21.753Z,0
2017-11-24T04:12:32.058Z,0
2017-11-24T04:13:42.351Z,0
2017-11-24T04:14:52.752Z,0
2017-11-24T04:16:02.801Z,0
2017-11-24T04:17:13.158Z,0
2017-11-24T04:18:23.502Z,0
2017-11-24T04:19:33.778Z,0
2017-11-24T04:20:44.062Z,0
2017-11-24T04:21:54.333Z,0
2017-11-24T04:23:04.350Z,0
2017-11-24T04:24:14.642Z,0
2017-11-24T04:25:24.554Z,0
2017-11-24T04:26:34.966Z,0
2017-11-24T04:27:45.297Z,0
2017-11-24T04:28:55.301Z,0
2017-11-24T04:30:05.206Z,0
2017-11-24T04:31:15.251Z,0
2017-11-24T04:32:25.675Z,0
2017-11-24T04:33:35.704Z,0
2017-11-24T04:34:45.853Z,0
2017-11-24T04:35:56.236Z,0
2017-11-24T04:37:06.256Z,0
2017-11-24T04:38:16.548Z,0
2017-11-24T04:39:26.412Z,0
2017-11-24T04:40:36.136Z,0
2017-11-24T04:41:46.415Z,0
2017-11-24T04:42:56.731Z,0
2017-11-24T04:44:06.886Z,0
2017-11-24T04:45:17.176Z,0
2017-11-24T04:46:27.454Z,0
2017-11-24T04:47:37.501Z,0
2017-11-24T04:48:47.846Z,0
2017-11-24T04:49:58.383Z,0
2017-11-24T04:51:08.711Z,0
2017-11-24T04:52:19.041Z,0
2017-11-24T04:53:29.057Z,0
2017-11-24T04:54:39.060Z,0
2017-11-24T04:55:49.345Z,0
2017-11-24T04:56:59.619Z,0
2017-11-24T04:58:09.441Z,0
2017-11-24T04:59:19.569Z,0
2017-11-24T05:00:29.916Z,0
2017-11-24T05:01:40.254Z,0
2017-11-24T05:02:50.550Z,0
2017-11-24T05:04:00.848Z,0
2017-11-24T05:05:11.227Z,0
2017-11-24T05:06:21.516Z,0
2017-11-24T05:07:31.539Z,0
2017-11-24T05:08:41.580Z,0
2017-11-24T05:09:51.037Z,0
2017-11-24T05:11:01.329Z,0
2017-11-24T05:12:11.355Z,0
2017-11-24T05:13:21.980Z,0
2017-11-24T05:14:32.087Z,0
2017-11-24T05:15:42.407Z,0
2017-11-24T05:16:52.677Z,0
2017-11-24T05:18:03.113Z,0
2017-11-24T05:19:13.138Z,0
2017-11-24T05:20:23.448Z,0
2017-11-24T05:21:33.511Z,0
2017-11-24T05:22:43.848Z,0
2017-11-24T05:23:53.486Z,0
2017-11-24T05:25:04.587Z,0
2017-11-24T05:26:14.884Z,0
2017-11-24T05:27:25.171Z,0
2017-11-24T05:28:35.454Z,0
2017-11-24T05:29:45.393Z,0
2017-11-24T05:30:55.731Z,0
2017-11-24T05:32:05.780Z,0
2017-11-24T05:33:16.070Z,0
2017-11-24T05:34:26.153Z,0
2017-11-24T05:35:36.614Z,0
2017-11-24T05:36:46.292Z,0
2017-11-24T05:37:56.584Z,0
2017-11-24T05:39:06.914Z,0
2017-11-24T05:40:16.838Z,0
2017-11-24T05:41:27.165Z,0
2017-11-24T05:42:37.458Z,0
2017-11-24T05:43:47.762Z,0
2017-11-24T05:44:58.084Z,0
2017-11-24T05:46:08.451Z,0
2017-11-24T05:47:18.777Z,0
2017-11-24T05:48:28.769Z,0
2017-11-24T05:49:38.771Z,0
2017-11-24T05:50:49.056Z,0
2017-11-24T05:51:59.091Z,0
2017-11-24T05:53:09.384Z,0
2017-11-24T05:54:19.378Z,0
2017-11-24T05:55:29.418Z,0
2017-11-24T05:56:39.158Z,0
2017-11-24T05:57:49.459Z,0
2017-11-24T05:58:59.741Z,0
2017-11-24T06:00:10.074Z,0
2017-11-24T06:01:20.119Z,0
2017-11-24T06:02:30.423Z,0
2017-11-24T06:03:40.487Z,0
2017-11-24T06:04:50.783Z,0
2017-11-24T06:06:00.713Z,0
2017-11-24T06:07:11.013Z,0
2017-11-24T06:08:21.427Z,0
2017-11-24T06:09:31.720Z,0
2017-11-24T06:10:41.997Z,0
2017-11-24T06:11:52.283Z,0
2017-11-24T06:13:02.802Z,0
2017-11-24T06:14:13.092Z,0
2017-11-24T06:15:23.410Z,0
2017-11-24T06:16:33.418Z,0
2017-11-24T06:17:43.735Z,0
2017-11-24T06:18:54.406Z,4
2017-11-24T06:20:04.150Z,4
2017-11-24T06:21:14.170Z,4
2017-11-24T06:22:24.488Z,8
2017-11-24T06:23:34.806Z,8
2017-11-24T06:24:45.108Z,8
2017-11-24T06:25:55.170Z,8
2017-11-24T06:27:05.517Z,12
2017-11-24T06:28:15.289Z,12
2017-11-24T06:29:25.612Z,16
2017-11-24T06:30:35.649Z,20
2017-11-24T06:31:45.852Z,24
2017-11-24T06:32:55.934Z,32
2017-11-24T06:34:06.027Z,36
2017-11-24T06:35:16.091Z,40
2017-11-24T06:36:26.391Z,52
2017-11-24T06:37:36.660Z,60
2017-11-24T06:38:46.856Z,60
2017-11-24T06:39:56.939Z,64
2017-11-24T06:41:07.266Z,68
2017-11-24T06:42:17.567Z,76
2017-11-24T06:43:28.060Z,92
2017-11-24T06:44:38.335Z,104
2017-11-24T06:45:48.073Z,104
2017-11-24T06:46:58.360Z,100
2017-11-24T06:48:08.352Z,100
2017-11-24T06:49:18.641Z,104
2017-11-24T06:50:28.952Z,108
2017-11-24T06:51:39.282Z,128
2017-11-24T06:52:49.547Z,144
2017-11-24T06:53:59.446Z,160
2017-11-24T06:55:09.877Z,172
2017-11-24T06:56:20.171Z,176
2017-11-24T06:57:30.451Z,176
2017-11-24T06:58:40.727Z,180
2017-11-24T06:59:50.752Z,188
2017-11-24T07:01:01.041Z,196
2017-11-24T07:02:11.339Z,204
2017-11-24T07:03:21.620Z,228
2017-11-24T07:04:32.168Z,268
2017-11-24T07:05:42.451Z,324
2017-11-24T07:06:52.770Z,400
2017-11-24T07:08:03.225Z,480
2017-11-24T07:09:13.249Z,528
2017-11-24T07:10:23.261Z,548
2017-11-24T07:11:33.562Z,540
2017-11-24T07:12:44.044Z,440
2017-11-24T07:13:54.429Z,372
2017-11-24T07:15:04.304Z,388
2017-11-24T07:16:14.599Z,416
2017-11-24T07:17:24.650Z,428
2017-11-24T07:18:34.701Z,412
2017-11-24T07:19:44.733Z,372
2017-11-24T07:20:55.036Z,384
2017-11-24T07:22:05.333Z,444
2017-11-24T07:23:15.646Z,480
2017-11-24T07:24:25.974Z,432
2017-11-24T07:25:35.993Z,392
2017-11-24T07:26:46.303Z,396
2017-11-24T07:27:56.854Z,388
2017-11-24T07:29:07.175Z,388
2017-11-24T07:30:17.525Z,424
2017-11-24T07:31:27.524Z,520
2017-11-24T07:32:37.542Z,580
2017-11-24T07:33:48.037Z,596
2017-11-24T07:34:58.407Z,616
2017-11-24T07:36:08.749Z,712
2017-11-24T07:37:19.040Z,788
2017-11-24T07:38:29.339Z,856
2017-11-24T07:39:39.638Z,884
2017-11-24T07:40:49.938Z,860
2017-11-24T07:42:00.260Z,888
2017-11-24T07:43:10.738Z,836
2017-11-24T07:44:21.063Z,908
2017-11-24T07:45:31.033Z,932
2017-11-24T07:46:41.326Z,828
2017-11-24T07:47:51.791Z,736
2017-11-24T07:49:01.906Z,744
2017-11-24T07:50:12.000Z,872
2017-11-24T07:51:22.376Z,976
2017-11-24T07:52:32.676Z,1112
2017-11-24T07:53:42.724Z,1124
2017-11-24T07:54:52.800Z,1008
2017-11-24T07:56:03.330Z,988
2017-11-24T07:57:13.678Z,1024
2017-11-24T07:58:24.974Z,1056
2017-11-24T07:59:34.996Z,1096
2017-11-24T08:00:44.801Z,1012
2017-11-24T08:01:54.820Z,852
2017-11-24T08:03:05.147Z,760
2017-11-24T08:04:14.906Z,684
2017-11-24T08:05:25.499Z,600
2017-11-24T08:06:35.806Z,664
2017-11-24T08:07:45.733Z,708
2017-11-24T08:08:56.003Z,764
2017-11-24T08:10:05.955Z,884
2017-11-24T08:11:16.296Z,1064
2017-11-24T08:12:26.625Z,1288
2017-11-24T08:13:37.013Z,1516
2017-11-24T08:14:47.525Z,1820
2017-11-24T08:15:57.796Z,2260
2017-11-24T08:17:07.840Z,2704
2017-11-24T08:18:18.128Z,2904
2017-11-24T08:19:28.732Z,2804
2017-11-24T08:20:38.763Z,2904
2017-11-24T08:21:49.194Z,3288
2017-11-24T08:22:59.582Z,3588
2017-11-24T08:24:09.944Z,4044
2017-11-24T08:25:19.981Z,4004
2017-11-24T08:26:30.306Z,3864
2017-11-24T08:27:40.329Z,3920
2017-11-24T08:28:50.359Z,3716
2017-11-24T08:30:00.848Z,3532
2017-11-24T08:31:11.129Z,3748
2017-11-24T08:32:21.441Z,4140
2017-11-24T08:33:31.756Z,3016
2017-11-24T08:34:42.097Z,2176
2017-11-24T08:35:52.113Z,1776
2017-11-24T08:37:02.457Z,1280
2017-11-24T08:38:12.548Z,1356
2017-11-24T08:39:22.913Z,1544
2017-11-24T08:40:33.358Z,1644
2017-11-24T08:41:43.381Z,2060
2017-11-24T08:42:53.738Z,1644
2017-11-24T08:44:04.074Z,1552
2017-11-24T08:45:14.136Z,1512
2017-11-24T08:46:23.804Z,1376
2017-11-24T08:47:34.165Z,1888
2017-11-24T08:48:44.463Z,2220
2017-11-24T08:49:54.435Z,2100
2017-11-24T08:51:04.816Z,2164
2017-11-24T08:52:15.557Z,2912
2017-11-24T08:53:25.845Z,2760
2017-11-24T08:54:36.148Z,2416
2017-11-24T08:55:46.247Z,2612
2017-11-24T08:56:56.316Z,2404
2017-11-24T08:58:06.335Z,2672
2017-11-24T08:59:16.725Z,2452
2017-11-24T09:00:27.110Z,2500
2017-11-24T09:01:37.405Z,3292
2017-11-24T09:02:47.721Z,6064
2017-11-24T09:03:58.209Z,6392
2017-11-24T09:05:08.215Z,5472
2017-11-24T09:06:18.197Z,6880
2017-11-24T09:07:28.522Z,6828
2017-11-24T09:08:38.963Z,6168
2017-11-24T09:09:49.369Z,5816
2017-11-24T09:10:59.295Z,4060
2017-11-24T09:12:09.732Z,3064
2017-11-24T09:13:20.019Z,2716
2017-11-24T09:14:29.649Z,2448
2017-11-24T09:15:39.408Z,2484
2017-11-24T09:16:49.418Z,2592
2017-11-24T09:17:59.878Z,2280
2017-11-24T09:19:09.881Z,2252
2017-11-24T09:20:19.463Z,2564
2017-11-24T09:21:29.399Z,3148
2017-11-24T09:22:39.837Z,4168
2017-11-24T09:23:49.895Z,4348
2017-11-24T09:24:59.919Z,4808
2017-11-24T09:26:10.214Z,6596
2017-11-24T09:27:20.623Z,7524
2017-11-24T09:28:30.742Z,7628
2017-11-24T09:29:41.134Z,7648
2017-11-24T09:30:51.451Z,8000
2017-11-24T09:32:01.970Z,8344
2017-11-24T09:33:11.986Z,9780
2017-11-24T09:34:22.393Z,11492
2017-11-24T09:35:32.726Z,12336
2017-11-24T09:36:42.879Z,22816
2017-11-24T09:37:53.210Z,11292
2017-11-24T09:39:03.556Z,11296
2017-11-24T09:40:13.834Z,10184
2017-11-24T09:41:24.148Z,15232
2017-11-24T09:42:34.588Z,10972
2017-11-24T09:43:44.875Z,29504
2017-11-24T09:44:54.901Z,10828
2017-11-24T09:46:04.937Z,10748
2017-11-24T09:47:15.352Z,6460
2017-11-24T09:48:25.396Z,8564
2017-11-24T09:49:35.701Z,7136
2017-11-24T09:50:46.199Z,6680
2017-11-24T09:51:56.539Z,5820
2017-11-24T09:53:06.565Z,4372
2017-11-24T09:54:16.926Z,2724
2017-11-24T09:55:26.986Z,2080
2017-11-24T09:56:37.016Z,2532
2017-11-24T09:57:47.555Z,2512
2017-11-24T09:58:57.868Z,1812
2017-11-24T10:00:08.210Z,1124
2017-11-24T10:01:18.535Z,712
2017-11-24T10:02:28.831Z,516
2017-11-24T10:03:38.935Z,416
2017-11-24T10:04:49.351Z,380
2017-11-24T10:05:59.358Z,392
2017-11-24T10:07:09.638Z,420
2017-11-24T10:08:19.747Z,392
2017-11-24T10:09:29.787Z,392
2017-11-24T10:10:40.135Z,468
2017-11-24T10:11:50.093Z,552
2017-11-24T10:13:00.411Z,520
2017-11-24T10:14:10.731Z,496
2017-11-24T10:15:21.273Z,464
2017-11-24T10:16:31.571Z,528
2017-11-24T10:17:41.618Z,436
2017-11-24T10:18:51.924Z,412
2017-11-24T10:20:01.684Z,408
2017-11-24T10:21:11.712Z,340
2017-11-24T10:22:22.021Z,376
2017-11-24T10:23:32.350Z,360
2017-11-24T10:24:42.700Z,328
2017-11-24T10:25:52.201Z,380
2017-11-24T10:27:02.211Z,380
2017-11-24T10:28:12.533Z,356
2017-11-24T10:29:22.480Z,304
2017-11-24T10:30:31.894Z,380
2017-11-24T10:31:42.034Z,404
2017-11-24T10:32:52.330Z,456
2017-11-24T10:34:02.352Z,744
2017-11-24T10:35:12.751Z,1376
2017-11-24T10:36:22.703Z,996
2017-11-24T10:37:32.756Z,888
2017-11-24T10:38:42.805Z,1004
2017-11-24T10:39:53.100Z,904
2017-11-24T10:41:03.405Z,892
2017-11-24T10:42:13.439Z,728
2017-11-24T10:43:23.412Z,864
2017-11-24T10:44:33.496Z,752
2017-11-24T10:45:43.536Z,608
2017-11-24T10:46:53.873Z,492
2017-11-24T10:48:04.213Z,532
2017-11-24T10:49:14.040Z,500
2017-11-24T10:50:23.954Z,408
2017-11-24T10:51:34.502Z,568
2017-11-24T10:52:44.823Z,628
2017-11-24T10:53:55.192Z,768
2017-11-24T10:55:05.291Z,904
2017-11-24T10:56:15.238Z,1560
2017-11-24T10:57:25.261Z,1668
2017-11-24T10:58:35.684Z,1292
2017-11-24T10:59:46.222Z,876
2017-11-24T11:00:56.160Z,716
2017-11-24T11:02:06.470Z,716
2017-11-24T11:03:17.017Z,504
2017-11-24T11:04:27.319Z,440
2017-11-24T11:05:37.327Z,512
2017-11-24T11:06:47.092Z,488
2017-11-24T11:07:57.434Z,448
2017-11-24T11:09:07.379Z,428
2017-11-24T11:10:16.846Z,488
2017-11-24T11:11:27.181Z,620
2017-11-24T11:12:37.203Z,668
2017-11-24T11:13:47.529Z,620
2017-11-24T11:14:57.878Z,604
2017-11-24T11:16:08.177Z,592
2017-11-24T11:17:18.105Z,460
2017-11-24T11:18:28.193Z,344
2017-11-24T11:19:38.513Z,364
2017-11-24T11:20:48.890Z,404
2017-11-24T11:21:58.954Z,400
2017-11-24T11:23:09.589Z,456
2017-11-24T11:24:19.911Z,452
2017-11-24T11:25:30.234Z,468
2017-11-24T11:26:40.061Z,548
2017-11-24T11:27:50.131Z,688
2017-11-24T11:29:00.479Z,804
2017-11-24T11:30:11.032Z,708
2017-11-24T11:31:20.967Z,608
2017-11-24T11:32:31.365Z,564
2017-11-24T11:33:41.423Z,576
2017-11-24T11:34:51.777Z,588
2017-11-24T11:36:01.842Z,540
2017-11-24T11:37:11.865Z,620
2017-11-24T11:38:21.859Z,768
2017-11-24T11:39:31.890Z,900
2017-11-24T11:40:42.095Z,752
2017-11-24T11:41:52.395Z,716
2017-11-24T11:43:02.482Z,860
2017-11-24T11:44:12.808Z,976
2017-11-24T11:45:22.872Z,1032
2017-11-24T11:46:33.223Z,1160
2017-11-24T11:47:43.259Z,1192
2017-11-24T11:48:53.320Z,1144
2017-11-24T11:50:02.959Z,1208
2017-11-24T11:51:12.997Z,1324
2017-11-24T11:52:23.306Z,1276
2017-11-24T11:53:33.606Z,1140
2017-11-24T11:54:43.942Z,1104
2017-11-24T11:55:54.228Z,1132
2017-11-24T11:57:03.906Z,940
2017-11-24T11:58:13.433Z,788
2017-11-24T11:59:23.711Z,772
2017-11-24T12:00:33.783Z,832
2017-11-24T12:01:44.105Z,896
2017-11-24T12:02:54.395Z,976
2017-11-24T12:04:04.586Z,1044
2017-11-24T12:05:14.903Z,1092
2017-11-24T12:06:25.448Z,1080
2017-11-24T12:07:35.755Z,1156
2017-11-24T12:08:46.289Z,1296
2017-11-24T12:09:56.612Z,1412
2017-11-24T12:11:06.672Z,1352
2017-11-24T12:12:17.077Z,1192
2017-11-24T12:13:27.468Z,1256
2017-11-24T12:14:37.407Z,1232
2017-11-24T12:15:47.717Z,1344
2017-11-24T12:16:57.805Z,1588
2017-11-24T12:18:08.217Z,1880
2017-11-24T12:19:18.569Z,1976
2017-11-24T12:20:28.353Z,1684
2017-11-24T12:21:38.706Z,1540
2017-11-24T12:22:48.989Z,1632
2017-11-24T12:23:59.268Z,1880
2017-11-24T12:25:09.589Z,1944
2017-11-24T12:26:19.724Z,1504
2017-11-24T12:27:30.021Z,1284
2017-11-24T12:28:40.309Z,1452
2017-11-24T12:29:50.645Z,1544
2017-11-24T12:31:00.578Z,1576
2017-11-24T12:32:10.767Z,1524
2017-11-24T12:33:21.208Z,1264
2017-11-24T12:34:31.497Z,1204
2017-11-24T12:35:41.487Z,1208
2017-11-24T12:36:51.790Z,1220
2017-11-24T12:38:02.093Z,1284
2017-11-24T12:39:12.446Z,1408
2017-11-24T12:40:22.859Z,1376
2017-11-24T12:41:32.928Z,1484
2017-11-24T12:42:43.328Z,1728
2017-11-24T12:43:53.688Z,1556
2017-11-24T12:45:04.041Z,1432
2017-11-24T12:46:14.494Z,1368
2017-11-24T12:47:24.442Z,1100
2017-11-24T12:48:34.345Z,1060
2017-11-24T12:49:44.932Z,976
2017-11-24T12:50:55.396Z,1008
2017-11-24T12:52:05.326Z,984
2017-11-24T12:53:15.639Z,984
2017-11-24T12:54:25.323Z,888
2017-11-24T12:55:35.685Z,784
2017-11-24T12:56:46.039Z,712
2017-11-24T12:57:56.305Z,832
2017-11-24T12:59:06.493Z,864
2017-11-24T13:00:16.513Z,800
2017-11-24T13:01:26.886Z,776
2017-11-24T13:02:36.639Z,756
2017-11-24T13:03:47.022Z,788
2017-11-24T13:04:56.804Z,872
2017-11-24T13:06:07.287Z,1016
2017-11-24T13:07:17.113Z,1172
2017-11-24T13:08:27.456Z,1000
2017-11-24T13:09:37.818Z,836
2017-11-24T13:10:47.871Z,904
2017-11-24T13:11:58.175Z,1036
2017-11-24T13:13:08.701Z,852
2017-11-24T13:14:19.020Z,756
2017-11-24T13:15:29.056Z,712
2017-11-24T13:16:39.408Z,680
2017-11-24T13:17:49.761Z,676
2017-11-24T13:19:00.078Z,680
2017-11-24T13:20:10.431Z,764
2017-11-24T13:21:20.726Z,972
2017-11-24T13:22:30.482Z,972
2017-11-24T13:23:40.774Z,800
2017-11-24T13:24:50.599Z,844
2017-11-24T13:26:00.933Z,820
2017-11-24T13:27:10.876Z,888
2017-11-24T13:28:21.234Z,940
2017-11-24T13:29:31.655Z,936
2017-11-24T13:30:41.785Z,936
2017-11-24T13:31:52.249Z,912
2017-11-24T13:33:01.915Z,900
2017-11-24T13:34:12.271Z,804
2017-11-24T13:35:22.606Z,772
2017-11-24T13:36:32.947Z,812
2017-11-24T13:37:43.292Z,888
2017-11-24T13:38:54.037Z,872
2017-11-24T13:40:04.397Z,880
2017-11-24T13:41:14.430Z,1008
2017-11-24T13:42:24.556Z,996
2017-11-24T13:43:34.609Z,988
2017-11-24T13:44:44.869Z,972
2017-11-24T13:45:55.080Z,880
2017-11-24T13:47:37.249Z,708
2017-11-24T13:48:47.596Z,644
2017-11-24T13:49:57.949Z,548
2017-11-24T13:51:08.349Z,492
2017-11-24T13:52:18.691Z,408
2017-11-24T13:53:28.632Z,356
2017-11-24T13:54:38.438Z,288
2017-11-24T13:55:48.226Z,276
2017-11-24T13:56:58.189Z,300
2017-11-24T13:58:08.513Z,284
2017-11-24T13:59:19.003Z,304
2017-11-24T14:00:29.315Z,272
2017-11-24T14:01:39.617Z,304
2017-11-24T14:02:50.057Z,296
2017-11-24T14:04:00.153Z,324
2017-11-24T14:05:10.507Z,356
2017-11-24T14:06:20.935Z,376
2017-11-24T14:07:31.272Z,296
2017-11-24T14:08:41.705Z,268
2017-11-24T14:09:52.049Z,252
2017-11-24T14:11:02.605Z,240
2017-11-24T14:12:12.666Z,204
2017-11-24T14:13:23.004Z,184
2017-11-24T14:14:33.421Z,224
2017-11-24T14:15:43.578Z,208
2017-11-24T14:16:53.903Z,200
2017-11-24T14:18:03.941Z,260
2017-11-24T14:19:14.234Z,300
2017-11-24T14:20:24.600Z,356
2017-11-24T14:21:34.899Z,412
2017-11-24T14:22:45.073Z,436
2017-11-24T14:23:55.134Z,416
2017-11-24T14:25:05.208Z,360
2017-11-24T14:26:14.900Z,392
2017-11-24T14:27:25.285Z,412
2017-11-24T14:28:35.626Z,392
2017-11-24T14:29:45.613Z,368
2017-11-24T14:30:55.967Z,348
2017-11-24T14:32:05.955Z,344
2017-11-24T14:33:16.022Z,324
2017-11-24T14:34:26.735Z,352
2017-11-24T14:35:37.204Z,420
2017-11-24T14:36:47.644Z,380
2017-11-24T14:37:57.773Z,344
2017-11-24T14:39:08.212Z,344
2017-11-24T14:40:18.603Z,392
2017-11-24T14:41:28.651Z,456
2017-11-24T14:42:39.125Z,448
2017-11-24T14:43:49.428Z,432
2017-11-24T14:44:59.561Z,432
2017-11-24T14:46:09.526Z,428
2017-11-24T14:47:19.659Z,440
2017-11-24T14:48:29.714Z,396
2017-11-24T14:49:39.809Z,352
2017-11-24T14:50:50.165Z,328
2017-11-24T14:52:00.589Z,320
2017-11-24T14:53:10.953Z,292
2017-11-24T14:54:21.404Z,260
2017-11-24T14:55:31.626Z,228
2017-11-24T14:56:41.546Z,220
2017-11-24T14:57:52.359Z,216
2017-11-24T14:59:02.128Z,204
2017-11-24T15:00:12.227Z,180
2017-11-24T15:01:22.280Z,172
2017-11-24T15:02:32.844Z,164
2017-11-24T15:03:42.644Z,152
2017-11-24T15:04:53.010Z,148
2017-11-24T15:06:03.380Z,144
2017-11-24T15:07:13.595Z,136
2017-11-24T15:08:23.779Z,124
2017-11-24T15:09:34.000Z,108
2017-11-24T15:11:16.309Z,100
2017-11-24T15:12:26.651Z,96
2017-11-24T15:13:36.991Z,96
2017-11-24T15:14:47.032Z,100
2017-11-24T15:15:56.761Z,100
2017-11-24T15:17:06.707Z,88
2017-11-24T15:18:17.050Z,76
2017-11-24T15:19:27.240Z,60
2017-11-24T15:20:37.600Z,44
2017-11-24T15:21:47.673Z,40
2017-11-24T15:22:58.034Z,32
2017-11-24T15:24:07.784Z,28
2017-11-24T15:25:17.829Z,20
2017-11-24T15:26:27.504Z,16
2017-11-24T15:27:37.827Z,16
2017-11-24T15:28:47.935Z,12
2017-11-24T15:29:58.425Z,8
2017-11-24T15:31:08.489Z,4
2017-11-24T15:32:18.856Z,8
2017-11-24T15:33:28.956Z,4
2017-11-24T15:34:39.039Z,4
2017-11-24T15:35:49.349Z,4
2017-11-24T15:36:59.436Z,4
2017-11-24T15:38:09.822Z,4
2017-11-24T15:39:19.892Z,0
2017-11-24T15:40:29.922Z,4
2017-11-24T15:41:39.980Z,4
2017-11-24T15:42:50.081Z,0
2017-11-24T15:44:00.119Z,0
2017-11-24T15:45:10.176Z,0
2017-11-24T15:46:20.463Z,4
2017-11-24T15:47:30.562Z,4
2017-11-24T15:48:40.617Z,4
2017-11-24T15:49:50.572Z,4
2017-11-24T15:51:00.907Z,4
2017-11-24T15:52:10.960Z,0
2017-11-24T15:53:21.381Z,4
2017-11-24T15:54:31.708Z,0
2017-11-24T15:55:42.111Z,0
2017-11-24T15:56:51.917Z,0
2017-11-24T15:58:01.778Z,0
2017-11-24T15:59:12.104Z,0
2017-11-24T16:00:22.209Z,0
2017-11-24T16:01:32.560Z,0
2017-11-24T16:02:43.047Z,0
2017-11-24T16:03:53.412Z,0
2017-11-24T16:05:03.800Z,0
2017-11-24T16:06:14.153Z,0
2017-11-24T16:07:56.099Z,0
2017-11-24T16:09:06.177Z,0
2017-11-24T16:10:16.698Z,0
2017-11-24T16:11:27.038Z,0
2017-11-24T16:12:37.466Z,0
2017-11-24T16:13:47.771Z,0
2017-11-24T16:14:57.815Z,0
2017-11-24T16:16:08.203Z,0
2017-11-24T16:17:18.326Z,0
2017-11-24T16:18:28.401Z,0
2017-11-24T16:19:38.757Z,0
2017-11-24T16:20:49.063Z,0
2017-11-24T16:21:59.107Z,0
2017-11-24T16:23:09.468Z,0
2017-11-24T16:24:19.194Z,0
2017-11-24T16:25:29.540Z,0
2017-11-24T16:26:39.917Z,0
2017-11-24T16:27:50.074Z,0
2017-11-24T16:29:00.580Z,0
2017-11-24T16:30:10.944Z,0
2017-11-24T16:31:21.262Z,0
2017-11-24T16:32:32.171Z,0
2017-11-24T16:33:42.556Z,0